sensor_id;sensor_type;location;lat;lon;timestamp;P1;durP1;ratioP1;P2;durP2;ratioP2
6475;SDS011;3271;51.910;5.840;2022-07-30T00:00:05;7.40;;;4.50;;
6475;SDS011;3271;51.910;5.840;2022-07-30T00:02:32;7.57;;;4.70;;
6475;SDS011;3271;51.910;5.840;2022-07-30T00:04:58;7.13;;;4.35;;
6475;SDS011;3271;51.910;5.840;2022-07-30T00:07:24;6.90;;;4.60;;
6475;SDS011;3271;51.910;5.840;2022-07-30T00:09:50;8.95;;;5.43;;
6475;SDS011;3271;51.910;5.840;2022-07-30T00:12:16;7.28;;;4.13;;
6475;SDS011;3271;51.910;5.840;2022-07-30T00:14:42;8.20;;;4.60;;
6475;SDS011;3271;51.910;5.840;2022-07-30T00:17:08;8.13;;;4.68;;
6475;SDS011;3271;51.910;5.840;2022-07-30T00:19:34;8.00;;;4.95;;
6475;SDS011;3271;51.910;5.840;2022-07-30T00:22:00;7.95;;;4.82;;
6475;SDS011;3271;51.910;5.840;2022-07-30T00:24:26;11.05;;;4.70;;
6475;SDS011;3271;51.910;5.840;2022-07-30T00:26:52;6.53;;;4.95;;
6475;SDS011;3271;51.910;5.840;2022-07-30T00:29:18;6.95;;;4.82;;
6475;SDS011;3271;51.910;5.840;2022-07-30T00:31:44;10.20;;;4.65;;
6475;SDS011;3271;51.910;5.840;2022-07-30T00:34:10;6.95;;;4.63;;
6475;SDS011;3271;51.910;5.840;2022-07-30T00:36:39;9.07;;;4.88;;
6475;SDS011;3271;51.910;5.840;2022-07-30T00:39:05;8.68;;;4.80;;
6475;SDS011;3271;51.910;5.840;2022-07-30T00:41:31;6.43;;;5.05;;
6475;SDS011;3271;51.910;5.840;2022-07-30T00:43:57;6.93;;;5.60;;
6475;SDS011;3271;51.910;5.840;2022-07-30T00:46:23;7.22;;;4.88;;
6475;SDS011;3271;51.910;5.840;2022-07-30T00:48:49;9.45;;;5.28;;
6475;SDS011;3271;51.910;5.840;2022-07-30T00:51:15;7.32;;;5.60;;
6475;SDS011;3271;51.910;5.840;2022-07-30T00:53:41;8.77;;;5.03;;
6475;SDS011;3271;51.910;5.840;2022-07-30T00:56:07;9.77;;;5.95;;
6475;SDS011;3271;51.910;5.840;2022-07-30T00:58:33;8.80;;;5.03;;
6475;SDS011;3271;51.910;5.840;2022-07-30T01:00:59;7.50;;;5.38;;
6475;SDS011;3271;51.910;5.840;2022-07-30T01:03:25;7.30;;;5.05;;
6475;SDS011;3271;51.910;5.840;2022-07-30T01:05:51;8.55;;;5.63;;
6475;SDS011;3271;51.910;5.840;2022-07-30T01:08:17;8.20;;;6.13;;
6475;SDS011;3271;51.910;5.840;2022-07-30T01:10:43;7.13;;;5.30;;
6475;SDS011;3271;51.910;5.840;2022-07-30T01:13:09;6.20;;;5.13;;
6475;SDS011;3271;51.910;5.840;2022-07-30T01:15:35;9.43;;;5.82;;
6475;SDS011;3271;51.910;5.840;2022-07-30T01:18:01;6.40;;;5.65;;
6475;SDS011;3271;51.910;5.840;2022-07-30T01:20:31;8.45;;;5.38;;
6475;SDS011;3271;51.910;5.840;2022-07-30T01:25:38;7.30;;;5.95;;
6475;SDS011;3271;51.910;5.840;2022-07-30T01:28:06;7.78;;;5.82;;
6475;SDS011;3271;51.910;5.840;2022-07-30T01:30:34;7.22;;;5.18;;
6475;SDS011;3271;51.910;5.840;2022-07-30T01:33:03;7.00;;;5.53;;
6475;SDS011;3271;51.910;5.840;2022-07-30T01:35:29;7.03;;;5.32;;
6475;SDS011;3271;51.910;5.840;2022-07-30T01:37:57;5.93;;;5.25;;
6475;SDS011;3271;51.910;5.840;2022-07-30T01:40:25;5.80;;;5.10;;
6475;SDS011;3271;51.910;5.840;2022-07-30T01:42:51;7.10;;;6.13;;
6475;SDS011;3271;51.910;5.840;2022-07-30T01:45:19;5.75;;;5.20;;
6475;SDS011;3271;51.910;5.840;2022-07-30T01:47:46;8.65;;;5.40;;
6475;SDS011;3271;51.910;5.840;2022-07-30T01:50:13;5.80;;;5.25;;
6475;SDS011;3271;51.910;5.840;2022-07-30T01:52:40;6.10;;;4.90;;
6475;SDS011;3271;51.910;5.840;2022-07-30T01:55:07;6.00;;;5.40;;
6475;SDS011;3271;51.910;5.840;2022-07-30T01:57:33;6.40;;;5.05;;
6475;SDS011;3271;51.910;5.840;2022-07-30T02:00:00;5.47;;;4.20;;
6475;SDS011;3271;51.910;5.840;2022-07-30T02:02:28;5.75;;;5.05;;
6475;SDS011;3271;51.910;5.840;2022-07-30T02:04:54;5.47;;;4.97;;
6475;SDS011;3271;51.910;5.840;2022-07-30T02:07:26;6.50;;;4.78;;
6475;SDS011;3271;51.910;5.840;2022-07-30T02:09:57;6.10;;;4.75;;
6475;SDS011;3271;51.910;5.840;2022-07-30T02:12:24;5.20;;;4.70;;
6475;SDS011;3271;51.910;5.840;2022-07-30T02:15:08;7.50;;;4.47;;
6475;SDS011;3271;51.910;5.840;2022-07-30T02:17:40;8.63;;;4.82;;
6475;SDS011;3271;51.910;5.840;2022-07-30T02:20:08;5.25;;;4.43;;
6475;SDS011;3271;51.910;5.840;2022-07-30T02:22:35;8.88;;;4.97;;
6475;SDS011;3271;51.910;5.840;2022-07-30T02:25:02;7.25;;;4.72;;
6475;SDS011;3271;51.910;5.840;2022-07-30T02:27:29;6.95;;;4.88;;
6475;SDS011;3271;51.910;5.840;2022-07-30T02:29:56;6.13;;;4.97;;
6475;SDS011;3271;51.910;5.840;2022-07-30T02:32:23;7.93;;;5.40;;
6475;SDS011;3271;51.910;5.840;2022-07-30T02:34:52;5.90;;;5.15;;
6475;SDS011;3271;51.910;5.840;2022-07-30T02:37:20;8.30;;;5.45;;
6475;SDS011;3271;51.910;5.840;2022-07-30T02:39:47;7.45;;;4.80;;
6475;SDS011;3271;51.910;5.840;2022-07-30T02:42:14;5.88;;;4.95;;
6475;SDS011;3271;51.910;5.840;2022-07-30T02:44:41;5.30;;;4.80;;
6475;SDS011;3271;51.910;5.840;2022-07-30T02:47:08;5.82;;;4.88;;
6475;SDS011;3271;51.910;5.840;2022-07-30T02:49:35;6.55;;;5.38;;
6475;SDS011;3271;51.910;5.840;2022-07-30T02:52:03;8.38;;;4.40;;
6475;SDS011;3271;51.910;5.840;2022-07-30T02:54:32;4.97;;;4.45;;
6475;SDS011;3271;51.910;5.840;2022-07-30T02:56:58;7.70;;;4.88;;
6475;SDS011;3271;51.910;5.840;2022-07-30T02:59:25;6.40;;;4.60;;
6475;SDS011;3271;51.910;5.840;2022-07-30T03:01:53;10.27;;;4.97;;
6475;SDS011;3271;51.910;5.840;2022-07-30T03:04:20;7.15;;;4.40;;
6475;SDS011;3271;51.910;5.840;2022-07-30T03:06:47;5.97;;;4.75;;
6475;SDS011;3271;51.910;5.840;2022-07-30T03:09:14;6.43;;;5.35;;
6475;SDS011;3271;51.910;5.840;2022-07-30T03:11:40;7.43;;;5.20;;
6475;SDS011;3271;51.910;5.840;2022-07-30T03:14:06;6.78;;;5.00;;
6475;SDS011;3271;51.910;5.840;2022-07-30T03:16:33;8.85;;;5.18;;
6475;SDS011;3271;51.910;5.840;2022-07-30T03:19:01;7.15;;;4.93;;
6475;SDS011;3271;51.910;5.840;2022-07-30T03:21:28;9.90;;;5.78;;
6475;SDS011;3271;51.910;5.840;2022-07-30T03:23:56;8.30;;;5.30;;
6475;SDS011;3271;51.910;5.840;2022-07-30T03:26:23;9.30;;;6.30;;
6475;SDS011;3271;51.910;5.840;2022-07-30T03:28:50;6.68;;;5.90;;
6475;SDS011;3271;51.910;5.840;2022-07-30T03:31:16;9.10;;;5.90;;
6475;SDS011;3271;51.910;5.840;2022-07-30T03:33:42;7.68;;;6.03;;
6475;SDS011;3271;51.910;5.840;2022-07-30T03:36:08;9.32;;;6.45;;
6475;SDS011;3271;51.910;5.840;2022-07-30T03:38:37;13.60;;;6.93;;
6475;SDS011;3271;51.910;5.840;2022-07-30T03:41:04;7.43;;;6.25;;
6475;SDS011;3271;51.910;5.840;2022-07-30T03:43:31;9.20;;;6.20;;
6475;SDS011;3271;51.910;5.840;2022-07-30T03:45:57;10.80;;;7.22;;
6475;SDS011;3271;51.910;5.840;2022-07-30T03:48:23;10.60;;;6.90;;
6475;SDS011;3271;51.910;5.840;2022-07-30T03:50:49;9.63;;;7.13;;
6475;SDS011;3271;51.910;5.840;2022-07-30T03:53:15;9.00;;;6.18;;
6475;SDS011;3271;51.910;5.840;2022-07-30T03:55:43;8.80;;;6.05;;
6475;SDS011;3271;51.910;5.840;2022-07-30T03:58:09;9.98;;;6.60;;
6475;SDS011;3271;51.910;5.840;2022-07-30T04:00:36;8.73;;;6.57;;
6475;SDS011;3271;51.910;5.840;2022-07-30T04:03:03;7.90;;;6.25;;
6475;SDS011;3271;51.910;5.840;2022-07-30T04:05:29;11.07;;;7.43;;
6475;SDS011;3271;51.910;5.840;2022-07-30T04:07:55;10.63;;;6.50;;
6475;SDS011;3271;51.910;5.840;2022-07-30T04:10:21;9.57;;;5.88;;
6475;SDS011;3271;51.910;5.840;2022-07-30T04:12:47;11.77;;;7.10;;
6475;SDS011;3271;51.910;5.840;2022-07-30T04:15:13;8.05;;;6.10;;
6475;SDS011;3271;51.910;5.840;2022-07-30T04:17:40;12.30;;;6.68;;
6475;SDS011;3271;51.910;5.840;2022-07-30T04:20:24;8.00;;;6.15;;
6475;SDS011;3271;51.910;5.840;2022-07-30T04:22:52;10.07;;;5.63;;
6475;SDS011;3271;51.910;5.840;2022-07-30T04:25:18;9.35;;;5.95;;
6475;SDS011;3271;51.910;5.840;2022-07-30T04:27:45;9.52;;;6.20;;
6475;SDS011;3271;51.910;5.840;2022-07-30T04:30:11;9.65;;;6.45;;
6475;SDS011;3271;51.910;5.840;2022-07-30T04:32:37;9.98;;;6.45;;
6475;SDS011;3271;51.910;5.840;2022-07-30T04:35:03;6.20;;;5.45;;
6475;SDS011;3271;51.910;5.840;2022-07-30T04:37:29;12.18;;;6.82;;
6475;SDS011;3271;51.910;5.840;2022-07-30T04:39:55;7.68;;;5.97;;
6475;SDS011;3271;51.910;5.840;2022-07-30T04:42:22;8.07;;;5.90;;
6475;SDS011;3271;51.910;5.840;2022-07-30T04:44:48;8.23;;;5.60;;
6475;SDS011;3271;51.910;5.840;2022-07-30T04:47:14;8.27;;;6.10;;
6475;SDS011;3271;51.910;5.840;2022-07-30T04:49:40;10.85;;;6.68;;
6475;SDS011;3271;51.910;5.840;2022-07-30T04:52:07;10.52;;;5.20;;
6475;SDS011;3271;51.910;5.840;2022-07-30T04:54:37;10.38;;;5.85;;
6475;SDS011;3271;51.910;5.840;2022-07-30T04:57:06;8.18;;;4.95;;
6475;SDS011;3271;51.910;5.840;2022-07-30T04:59:32;5.57;;;4.60;;
6475;SDS011;3271;51.910;5.840;2022-07-30T05:02:01;5.88;;;5.30;;
6475;SDS011;3271;51.910;5.840;2022-07-30T05:04:27;7.07;;;5.25;;
6475;SDS011;3271;51.910;5.840;2022-07-30T05:06:53;5.18;;;4.68;;
6475;SDS011;3271;51.910;5.840;2022-07-30T05:09:21;7.97;;;4.60;;
6475;SDS011;3271;51.910;5.840;2022-07-30T05:11:51;7.88;;;5.88;;
6475;SDS011;3271;51.910;5.840;2022-07-30T05:14:18;8.05;;;5.13;;
6475;SDS011;3271;51.910;5.840;2022-07-30T05:16:44;6.68;;;5.18;;
6475;SDS011;3271;51.910;5.840;2022-07-30T05:19:10;6.90;;;5.60;;
6475;SDS011;3271;51.910;5.840;2022-07-30T05:21:36;6.20;;;5.05;;
6475;SDS011;3271;51.910;5.840;2022-07-30T05:24:02;8.40;;;5.00;;
6475;SDS011;3271;51.910;5.840;2022-07-30T05:26:28;8.10;;;4.95;;
6475;SDS011;3271;51.910;5.840;2022-07-30T05:28:54;10.77;;;5.55;;
6475;SDS011;3271;51.910;5.840;2022-07-30T05:31:20;10.68;;;5.70;;
6475;SDS011;3271;51.910;5.840;2022-07-30T05:33:46;6.20;;;5.32;;
6475;SDS011;3271;51.910;5.840;2022-07-30T05:36:12;7.93;;;4.88;;
6475;SDS011;3271;51.910;5.840;2022-07-30T05:38:38;8.88;;;5.53;;
6475;SDS011;3271;51.910;5.840;2022-07-30T05:41:04;7.15;;;6.43;;
6475;SDS011;3271;51.910;5.840;2022-07-30T05:43:30;7.25;;;5.32;;
6475;SDS011;3271;51.910;5.840;2022-07-30T05:45:56;8.48;;;6.07;;
6475;SDS011;3271;51.910;5.840;2022-07-30T05:48:22;6.60;;;5.22;;
6475;SDS011;3271;51.910;5.840;2022-07-30T05:50:48;10.13;;;5.30;;
6475;SDS011;3271;51.910;5.840;2022-07-30T05:53:14;7.00;;;5.20;;
6475;SDS011;3271;51.910;5.840;2022-07-30T05:55:40;5.47;;;4.65;;
6475;SDS011;3271;51.910;5.840;2022-07-30T05:58:06;7.75;;;5.20;;
6475;SDS011;3271;51.910;5.840;2022-07-30T06:00:31;9.65;;;5.78;;
6475;SDS011;3271;51.910;5.840;2022-07-30T06:02:59;5.90;;;5.30;;
6475;SDS011;3271;51.910;5.840;2022-07-30T06:05:25;6.63;;;4.85;;
6475;SDS011;3271;51.910;5.840;2022-07-30T06:07:52;6.20;;;4.82;;
6475;SDS011;3271;51.910;5.840;2022-07-30T06:10:18;8.77;;;5.70;;
6475;SDS011;3271;51.910;5.840;2022-07-30T06:12:44;7.40;;;5.28;;
6475;SDS011;3271;51.910;5.840;2022-07-30T06:15:10;10.57;;;4.97;;
6475;SDS011;3271;51.910;5.840;2022-07-30T06:17:45;5.72;;;4.93;;
6475;SDS011;3271;51.910;5.840;2022-07-30T06:20:12;5.75;;;4.82;;
6475;SDS011;3271;51.910;5.840;2022-07-30T06:22:38;7.10;;;5.28;;
6475;SDS011;3271;51.910;5.840;2022-07-30T06:25:05;8.50;;;5.72;;
6475;SDS011;3271;51.910;5.840;2022-07-30T06:27:32;5.63;;;4.55;;
6475;SDS011;3271;51.910;5.840;2022-07-30T06:30:05;5.65;;;5.15;;
6475;SDS011;3271;51.910;5.840;2022-07-30T06:32:31;5.80;;;5.20;;
6475;SDS011;3271;51.910;5.840;2022-07-30T06:34:58;8.60;;;5.60;;
6475;SDS011;3271;51.910;5.840;2022-07-30T06:37:24;6.47;;;5.10;;
6475;SDS011;3271;51.910;5.840;2022-07-30T06:39:50;6.90;;;4.60;;
6475;SDS011;3271;51.910;5.840;2022-07-30T06:42:16;7.05;;;4.80;;
6475;SDS011;3271;51.910;5.840;2022-07-30T06:44:42;8.35;;;5.70;;
6475;SDS011;3271;51.910;5.840;2022-07-30T06:47:08;7.72;;;5.60;;
6475;SDS011;3271;51.910;5.840;2022-07-30T06:49:34;8.70;;;5.57;;
6475;SDS011;3271;51.910;5.840;2022-07-30T06:52:01;6.00;;;5.40;;
6475;SDS011;3271;51.910;5.840;2022-07-30T06:54:27;6.57;;;4.97;;
6475;SDS011;3271;51.910;5.840;2022-07-30T06:56:53;8.05;;;5.18;;
6475;SDS011;3271;51.910;5.840;2022-07-30T06:59:19;6.55;;;5.35;;
6475;SDS011;3271;51.910;5.840;2022-07-30T07:01:45;8.77;;;4.88;;
6475;SDS011;3271;51.910;5.840;2022-07-30T07:04:11;11.23;;;5.93;;
6475;SDS011;3271;51.910;5.840;2022-07-30T07:06:36;7.38;;;5.07;;
6475;SDS011;3271;51.910;5.840;2022-07-30T07:09:03;7.35;;;4.93;;
6475;SDS011;3271;51.910;5.840;2022-07-30T07:11:29;8.27;;;5.28;;
6475;SDS011;3271;51.910;5.840;2022-07-30T07:13:55;7.35;;;4.88;;
6475;SDS011;3271;51.910;5.840;2022-07-30T07:16:21;4.90;;;4.28;;
6475;SDS011;3271;51.910;5.840;2022-07-30T07:18:52;8.43;;;5.20;;
6475;SDS011;3271;51.910;5.840;2022-07-30T07:21:19;5.85;;;4.70;;
6475;SDS011;3271;51.910;5.840;2022-07-30T07:23:45;9.77;;;4.70;;
6475;SDS011;3271;51.910;5.840;2022-07-30T07:26:14;7.88;;;4.57;;
6475;SDS011;3271;51.910;5.840;2022-07-30T07:28:41;4.80;;;3.45;;
6475;SDS011;3271;51.910;5.840;2022-07-30T07:31:07;4.68;;;3.90;;
6475;SDS011;3271;51.910;5.840;2022-07-30T07:33:33;5.65;;;4.72;;
6475;SDS011;3271;51.910;5.840;2022-07-30T07:35:59;3.95;;;3.63;;
6475;SDS011;3271;51.910;5.840;2022-07-30T07:38:25;5.53;;;3.53;;
6475;SDS011;3271;51.910;5.840;2022-07-30T07:40:52;6.88;;;3.55;;
6475;SDS011;3271;51.910;5.840;2022-07-30T07:43:18;5.82;;;3.78;;
6475;SDS011;3271;51.910;5.840;2022-07-30T07:45:43;7.97;;;3.40;;
6475;SDS011;3271;51.910;5.840;2022-07-30T07:48:10;3.72;;;3.20;;
6475;SDS011;3271;51.910;5.840;2022-07-30T07:50:36;5.28;;;2.97;;
6475;SDS011;3271;51.910;5.840;2022-07-30T07:53:02;6.88;;;3.67;;
6475;SDS011;3271;51.910;5.840;2022-07-30T07:55:28;6.70;;;3.50;;
6475;SDS011;3271;51.910;5.840;2022-07-30T07:57:54;4.38;;;3.17;;
6475;SDS011;3271;51.910;5.840;2022-07-30T08:00:20;4.28;;;3.15;;
6475;SDS011;3271;51.910;5.840;2022-07-30T08:02:46;5.45;;;3.30;;
6475;SDS011;3271;51.910;5.840;2022-07-30T08:05:13;4.75;;;4.35;;
6475;SDS011;3271;51.910;5.840;2022-07-30T08:07:39;6.22;;;3.28;;
6475;SDS011;3271;51.910;5.840;2022-07-30T08:10:06;6.03;;;3.33;;
6475;SDS011;3271;51.910;5.840;2022-07-30T08:12:32;4.35;;;3.67;;
6475;SDS011;3271;51.910;5.840;2022-07-30T08:14:59;5.90;;;3.08;;
6475;SDS011;3271;51.910;5.840;2022-07-30T08:17:25;5.93;;;2.97;;
6475;SDS011;3271;51.910;5.840;2022-07-30T08:19:51;6.28;;;2.90;;
6475;SDS011;3271;51.910;5.840;2022-07-30T08:22:17;6.05;;;3.90;;
6475;SDS011;3271;51.910;5.840;2022-07-30T08:24:43;7.10;;;3.75;;
6475;SDS011;3271;51.910;5.840;2022-07-30T08:27:09;6.25;;;4.10;;
6475;SDS011;3271;51.910;5.840;2022-07-30T08:29:35;8.00;;;3.35;;
6475;SDS011;3271;51.910;5.840;2022-07-30T08:32:01;3.28;;;2.60;;
6475;SDS011;3271;51.910;5.840;2022-07-30T08:34:27;4.88;;;2.67;;
6475;SDS011;3271;51.910;5.840;2022-07-30T08:36:53;5.55;;;3.03;;
6475;SDS011;3271;51.910;5.840;2022-07-30T08:39:19;4.10;;;2.55;;
6475;SDS011;3271;51.910;5.840;2022-07-30T08:41:45;5.93;;;2.47;;
6475;SDS011;3271;51.910;5.840;2022-07-30T08:44:11;9.02;;;4.18;;
6475;SDS011;3271;51.910;5.840;2022-07-30T08:46:39;4.93;;;3.10;;
6475;SDS011;3271;51.910;5.840;2022-07-30T08:49:06;4.65;;;2.70;;
6475;SDS011;3271;51.910;5.840;2022-07-30T08:51:33;3.55;;;2.72;;
6475;SDS011;3271;51.910;5.840;2022-07-30T08:53:59;3.70;;;2.92;;
6475;SDS011;3271;51.910;5.840;2022-07-30T08:56:26;3.42;;;2.55;;
6475;SDS011;3271;51.910;5.840;2022-07-30T08:58:52;4.88;;;3.00;;
6475;SDS011;3271;51.910;5.840;2022-07-30T09:01:19;4.03;;;2.90;;
6475;SDS011;3271;51.910;5.840;2022-07-30T09:03:46;4.00;;;3.05;;
6475;SDS011;3271;51.910;5.840;2022-07-30T09:06:12;4.10;;;2.63;;
6475;SDS011;3271;51.910;5.840;2022-07-30T09:08:38;3.47;;;2.88;;
6475;SDS011;3271;51.910;5.840;2022-07-30T09:11:04;4.13;;;2.40;;
6475;SDS011;3271;51.910;5.840;2022-07-30T09:13:37;2.30;;;2.10;;
6475;SDS011;3271;51.910;5.840;2022-07-30T09:16:05;2.55;;;2.05;;
6475;SDS011;3271;51.910;5.840;2022-07-30T09:18:35;8.40;;;2.50;;
6475;SDS011;3271;51.910;5.840;2022-07-30T09:21:18;7.40;;;3.00;;
6475;SDS011;3271;51.910;5.840;2022-07-30T09:26:20;5.40;;;2.75;;
6475;SDS011;3271;51.910;5.840;2022-07-30T09:28:46;3.78;;;2.88;;
6475;SDS011;3271;51.910;5.840;2022-07-30T09:31:12;5.43;;;2.40;;
6475;SDS011;3271;51.910;5.840;2022-07-30T09:33:39;3.10;;;2.17;;
6475;SDS011;3271;51.910;5.840;2022-07-30T09:36:06;3.92;;;2.63;;
6475;SDS011;3271;51.910;5.840;2022-07-30T09:38:45;3.55;;;2.38;;
6475;SDS011;3271;51.910;5.840;2022-07-30T09:41:12;2.45;;;2.22;;
6475;SDS011;3271;51.910;5.840;2022-07-30T09:43:48;4.45;;;2.42;;
6475;SDS011;3271;51.910;5.840;2022-07-30T09:46:15;3.30;;;2.53;;
6475;SDS011;3271;51.910;5.840;2022-07-30T09:48:41;4.03;;;3.03;;
6475;SDS011;3271;51.910;5.840;2022-07-30T09:51:08;3.67;;;2.40;;
6475;SDS011;3271;51.910;5.840;2022-07-30T09:53:35;4.68;;;2.55;;
6475;SDS011;3271;51.910;5.840;2022-07-30T09:56:21;5.13;;;3.30;;
6475;SDS011;3271;51.910;5.840;2022-07-30T09:58:47;4.32;;;2.47;;
6475;SDS011;3271;51.910;5.840;2022-07-30T10:01:14;3.13;;;2.58;;
6475;SDS011;3271;51.910;5.840;2022-07-30T10:03:40;2.60;;;2.40;;
6475;SDS011;3271;51.910;5.840;2022-07-30T10:06:07;4.40;;;2.47;;
6475;SDS011;3271;51.910;5.840;2022-07-30T10:11:05;3.95;;;2.35;;
6475;SDS011;3271;51.910;5.840;2022-07-30T10:13:31;4.35;;;2.47;;
6475;SDS011;3271;51.910;5.840;2022-07-30T10:15:58;3.60;;;2.70;;
6475;SDS011;3271;51.910;5.840;2022-07-30T10:18:25;5.13;;;2.45;;
6475;SDS011;3271;51.910;5.840;2022-07-30T10:20:51;4.88;;;2.45;;
6475;SDS011;3271;51.910;5.840;2022-07-30T10:23:18;6.78;;;4.10;;
6475;SDS011;3271;51.910;5.840;2022-07-30T10:25:44;3.80;;;2.95;;
6475;SDS011;3271;51.910;5.840;2022-07-30T10:28:11;6.15;;;2.95;;
6475;SDS011;3271;51.910;5.840;2022-07-30T10:30:37;5.55;;;3.38;;
6475;SDS011;3271;51.910;5.840;2022-07-30T10:33:03;4.45;;;3.25;;
6475;SDS011;3271;51.910;5.840;2022-07-30T10:35:29;2.63;;;2.38;;
6475;SDS011;3271;51.910;5.840;2022-07-30T10:37:55;3.13;;;2.85;;
6475;SDS011;3271;51.910;5.840;2022-07-30T10:40:36;4.32;;;2.85;;
6475;SDS011;3271;51.910;5.840;2022-07-30T10:45:55;3.70;;;2.40;;
6475;SDS011;3271;51.910;5.840;2022-07-30T10:48:24;4.38;;;2.75;;
6475;SDS011;3271;51.910;5.840;2022-07-30T10:50:51;4.72;;;2.83;;
6475;SDS011;3271;51.910;5.840;2022-07-30T10:56:09;5.40;;;2.50;;
6475;SDS011;3271;51.910;5.840;2022-07-30T11:01:21;4.82;;;3.35;;
6475;SDS011;3271;51.910;5.840;2022-07-30T11:04:15;4.90;;;2.75;;
6475;SDS011;3271;51.910;5.840;2022-07-30T11:06:32;3.72;;;3.33;;
6475;SDS011;3271;51.910;5.840;2022-07-30T11:08:59;3.63;;;2.63;;
6475;SDS011;3271;51.910;5.840;2022-07-30T11:14:00;3.10;;;2.80;;
6475;SDS011;3271;51.910;5.840;2022-07-30T11:21:28;4.07;;;3.15;;
6475;SDS011;3271;51.910;5.840;2022-07-30T11:23:54;7.80;;;3.33;;
6475;SDS011;3271;51.910;5.840;2022-07-30T11:31:55;4.90;;;3.65;;
6475;SDS011;3271;51.910;5.840;2022-07-30T11:42:34;4.60;;;3.05;;
6475;SDS011;3271;51.910;5.840;2022-07-30T11:50:21;4.03;;;2.78;;
6475;SDS011;3271;51.910;5.840;2022-07-30T11:52:48;3.80;;;2.50;;
6475;SDS011;3271;51.910;5.840;2022-07-30T11:55:21;3.28;;;2.97;;
6475;SDS011;3271;51.910;5.840;2022-07-30T11:57:48;3.22;;;2.42;;
6475;SDS011;3271;51.910;5.840;2022-07-30T12:00:14;3.30;;;2.80;;
6475;SDS011;3271;51.910;5.840;2022-07-30T12:02:42;4.28;;;3.08;;
6475;SDS011;3271;51.910;5.840;2022-07-30T12:05:08;4.25;;;2.30;;
6475;SDS011;3271;51.910;5.840;2022-07-30T12:07:34;2.70;;;2.25;;
6475;SDS011;3271;51.910;5.840;2022-07-30T12:10:16;3.00;;;2.17;;
6475;SDS011;3271;51.910;5.840;2022-07-30T12:12:43;6.68;;;2.10;;
6475;SDS011;3271;51.910;5.840;2022-07-30T12:15:09;2.47;;;1.90;;
6475;SDS011;3271;51.910;5.840;2022-07-30T12:17:42;3.45;;;2.22;;
6475;SDS011;3271;51.910;5.840;2022-07-30T12:20:18;3.22;;;2.35;;
6475;SDS011;3271;51.910;5.840;2022-07-30T12:22:44;2.22;;;2.00;;
6475;SDS011;3271;51.910;5.840;2022-07-30T12:25:11;5.63;;;2.20;;
6475;SDS011;3271;51.910;5.840;2022-07-30T12:27:37;3.65;;;2.28;;
6475;SDS011;3271;51.910;5.840;2022-07-30T12:30:04;3.92;;;2.30;;
6475;SDS011;3271;51.910;5.840;2022-07-30T12:32:30;3.22;;;1.73;;
6475;SDS011;3271;51.910;5.840;2022-07-30T12:34:56;2.78;;;2.20;;
6475;SDS011;3271;51.910;5.840;2022-07-30T12:37:23;2.85;;;1.95;;
6475;SDS011;3271;51.910;5.840;2022-07-30T12:40:03;3.30;;;1.80;;
6475;SDS011;3271;51.910;5.840;2022-07-30T12:42:29;3.35;;;2.10;;
6475;SDS011;3271;51.910;5.840;2022-07-30T12:44:55;2.00;;;1.73;;
6475;SDS011;3271;51.910;5.840;2022-07-30T12:47:25;5.68;;;1.85;;
6475;SDS011;3271;51.910;5.840;2022-07-30T12:49:54;2.03;;;1.55;;
6475;SDS011;3271;51.910;5.840;2022-07-30T12:52:22;5.75;;;2.20;;
6475;SDS011;3271;51.910;5.840;2022-07-30T12:55:27;2.33;;;1.88;;
6475;SDS011;3271;51.910;5.840;2022-07-30T13:00:23;5.32;;;1.80;;
6475;SDS011;3271;51.910;5.840;2022-07-30T13:02:49;2.15;;;1.63;;
6475;SDS011;3271;51.910;5.840;2022-07-30T13:05:15;2.80;;;2.42;;
6475;SDS011;3271;51.910;5.840;2022-07-30T13:07:57;2.83;;;1.70;;
6475;SDS011;3271;51.910;5.840;2022-07-30T13:10:24;2.28;;;2.00;;
6475;SDS011;3271;51.910;5.840;2022-07-30T13:12:50;3.20;;;2.05;;
6475;SDS011;3271;51.910;5.840;2022-07-30T13:15:17;3.58;;;1.65;;
6475;SDS011;3271;51.910;5.840;2022-07-30T13:17:43;4.15;;;2.10;;
6475;SDS011;3271;51.910;5.840;2022-07-30T13:20:09;2.85;;;1.67;;
6475;SDS011;3271;51.910;5.840;2022-07-30T13:22:35;2.13;;;1.95;;
6475;SDS011;3271;51.910;5.840;2022-07-30T13:25:01;3.95;;;2.10;;
6475;SDS011;3271;51.910;5.840;2022-07-30T13:27:27;1.92;;;1.58;;
6475;SDS011;3271;51.910;5.840;2022-07-30T13:29:53;2.17;;;1.60;;
6475;SDS011;3271;51.910;5.840;2022-07-30T13:32:19;3.63;;;1.83;;
6475;SDS011;3271;51.910;5.840;2022-07-30T13:34:45;6.53;;;1.58;;
6475;SDS011;3271;51.910;5.840;2022-07-30T13:37:11;3.47;;;1.80;;
6475;SDS011;3271;51.910;5.840;2022-07-30T13:39:37;4.68;;;2.47;;
6475;SDS011;3271;51.910;5.840;2022-07-30T13:42:03;4.00;;;1.90;;
6475;SDS011;3271;51.910;5.840;2022-07-30T13:44:29;2.00;;;1.80;;
6475;SDS011;3271;51.910;5.840;2022-07-30T13:46:55;1.70;;;1.60;;
6475;SDS011;3271;51.910;5.840;2022-07-30T13:49:21;2.70;;;1.90;;
6475;SDS011;3271;51.910;5.840;2022-07-30T13:51:47;5.30;;;2.00;;
6475;SDS011;3271;51.910;5.840;2022-07-30T13:54:13;2.55;;;1.92;;
6475;SDS011;3271;51.910;5.840;2022-07-30T13:56:39;3.25;;;1.77;;
6475;SDS011;3271;51.910;5.840;2022-07-30T13:59:05;1.63;;;1.45;;
6475;SDS011;3271;51.910;5.840;2022-07-30T14:01:31;2.20;;;2.00;;
6475;SDS011;3271;51.910;5.840;2022-07-30T14:03:57;2.40;;;1.80;;
6475;SDS011;3271;51.910;5.840;2022-07-30T14:06:23;3.38;;;1.80;;
6475;SDS011;3271;51.910;5.840;2022-07-30T14:08:49;2.22;;;1.55;;
6475;SDS011;3271;51.910;5.840;2022-07-30T14:11:15;2.80;;;2.00;;
6475;SDS011;3271;51.910;5.840;2022-07-30T14:13:41;2.83;;;1.50;;
6475;SDS011;3271;51.910;5.840;2022-07-30T14:16:07;2.67;;;1.70;;
6475;SDS011;3271;51.910;5.840;2022-07-30T14:18:33;2.05;;;1.60;;
6475;SDS011;3271;51.910;5.840;2022-07-30T14:20:59;2.25;;;1.65;;
6475;SDS011;3271;51.910;5.840;2022-07-30T14:23:26;2.83;;;1.75;;
6475;SDS011;3271;51.910;5.840;2022-07-30T14:25:53;3.13;;;1.73;;
6475;SDS011;3271;51.910;5.840;2022-07-30T14:28:18;6.13;;;1.83;;
6475;SDS011;3271;51.910;5.840;2022-07-30T14:30:45;4.10;;;1.63;;
6475;SDS011;3271;51.910;5.840;2022-07-30T14:33:11;3.75;;;1.80;;
6475;SDS011;3271;51.910;5.840;2022-07-30T14:35:38;2.17;;;1.75;;
6475;SDS011;3271;51.910;5.840;2022-07-30T14:38:04;1.67;;;1.40;;
6475;SDS011;3271;51.910;5.840;2022-07-30T14:40:30;2.58;;;1.60;;
6475;SDS011;3271;51.910;5.840;2022-07-30T14:45:26;2.45;;;1.67;;
6475;SDS011;3271;51.910;5.840;2022-07-30T14:47:52;3.03;;;1.73;;
6475;SDS011;3271;51.910;5.840;2022-07-30T14:50:18;2.65;;;1.77;;
6475;SDS011;3271;51.910;5.840;2022-07-30T14:52:44;2.92;;;2.03;;
6475;SDS011;3271;51.910;5.840;2022-07-30T14:55:11;2.38;;;1.67;;
6475;SDS011;3271;51.910;5.840;2022-07-30T14:57:37;3.58;;;1.58;;
6475;SDS011;3271;51.910;5.840;2022-07-30T15:00:03;1.75;;;1.60;;
6475;SDS011;3271;51.910;5.840;2022-07-30T15:02:31;2.88;;;1.55;;
6475;SDS011;3271;51.910;5.840;2022-07-30T15:04:57;3.45;;;1.73;;
6475;SDS011;3271;51.910;5.840;2022-07-30T15:07:23;2.35;;;2.15;;
6475;SDS011;3271;51.910;5.840;2022-07-30T15:09:49;9.02;;;5.95;;
6475;SDS011;3271;51.910;5.840;2022-07-30T15:12:18;7.47;;;3.97;;
6475;SDS011;3271;51.910;5.840;2022-07-30T15:17:29;4.68;;;2.53;;
6475;SDS011;3271;51.910;5.840;2022-07-30T15:19:55;4.85;;;2.53;;
6475;SDS011;3271;51.910;5.840;2022-07-30T15:22:21;1.77;;;1.65;;
6475;SDS011;3271;51.910;5.840;2022-07-30T15:24:47;3.05;;;1.60;;
6475;SDS011;3271;51.910;5.840;2022-07-30T15:30:16;2.90;;;1.75;;
6475;SDS011;3271;51.910;5.840;2022-07-30T15:32:43;3.05;;;1.85;;
6475;SDS011;3271;51.910;5.840;2022-07-30T15:35:09;5.38;;;1.98;;
6475;SDS011;3271;51.910;5.840;2022-07-30T15:37:35;3.78;;;2.00;;
6475;SDS011;3271;51.910;5.840;2022-07-30T15:40:02;6.32;;;4.35;;
6475;SDS011;3271;51.910;5.840;2022-07-30T15:42:28;3.83;;;2.28;;
6475;SDS011;3271;51.910;5.840;2022-07-30T15:44:55;3.47;;;1.73;;
6475;SDS011;3271;51.910;5.840;2022-07-30T15:47:21;2.22;;;1.70;;
6475;SDS011;3271;51.910;5.840;2022-07-30T15:49:47;2.85;;;1.70;;
6475;SDS011;3271;51.910;5.840;2022-07-30T15:52:13;2.95;;;1.75;;
6475;SDS011;3271;51.910;5.840;2022-07-30T15:54:39;3.50;;;1.67;;
6475;SDS011;3271;51.910;5.840;2022-07-30T15:57:05;4.22;;;1.88;;
6475;SDS011;3271;51.910;5.840;2022-07-30T15:59:31;1.70;;;1.60;;
6475;SDS011;3271;51.910;5.840;2022-07-30T16:01:57;2.15;;;1.75;;
6475;SDS011;3271;51.910;5.840;2022-07-30T16:04:23;2.30;;;1.60;;
6475;SDS011;3271;51.910;5.840;2022-07-30T16:06:51;4.10;;;1.92;;